NEW MELONES RESERVOIR (NML)

Elevation: 1135' · STANISLAUS R basin · Operator: US Bureau of Reclamation

Provisional data, subject to change.
Query executed Friday at 18:59:51   clock

Select a sensor type for a plot of data.
Note: Reservoir Flows are daily averages.

Earlier

Date RES ELE    STORAGE    RES CHG    TOC STO    ABV TOC    OUTFLOW    INFLOW    EVAP    FNF    RIV REL    PPT INC    SPILL    DIS PWR   
 FEET   AF   AF   AF   AF   CFS   CFS   CFS   CFS   CFS   INCHES   CFS   CFS  
06/02/2016 883.02 627557 2198 2420000 -1792443 1856 3044 80 3255 0 0.00 0 1856
06/03/2016 883.59 630628 3071 2420000 -1789372 1616 3244 80 3021 0 0.00 0 1616
06/04/2016 884.06 633162 2534 2420000 -1786838 1732 3092 82 3348 0 0.00 0 1732
06/05/2016 884.46 635329 2167 2420000 -1784671 1736 2889 60 2205 0 0.00 0 1736
06/06/2016 884.98 638146 2817 2420000 -1781854 1326 2823 77 2744 0 0.00 0 1326
06/07/2016 885.51 641031 2885 2420000 -1778969 1220 2736 62 2791 0 0.00 0 1220
06/08/2016 885.95 643428 2397 2420000 -1776572 1431 2715 76 2779 0 0.00 0 1431
06/09/2016 886.18 644686 1258 2420000 -1775314 2073 2778 71 2623 0 0.00 0 2073
06/10/2016 886.55 646711 2025 2420000 -1773289 1538 2626 67 2380 0 0.00 0 1538
06/11/2016 886.86 648409 1698 2420000 -1771591 1344 2267 67 2027 0 0.00 0 1344
06/12/2016 886.93 648792 383 2420000 -1771208 1688 1940 59 1719 0 0.00 0 1688
06/13/2016 886.95 648901 109 2420000 -1771099 1645 1771 71 1699 0 0.00 0 1645
06/14/2016 886.90 648628 -273 2420000 -1771372 1469 1397 66 1702 0 0.00 0 1469
06/15/2016 886.63 647149 -1479 2420000 -1772851 1817 1133 62 1490 0 0.00 0 1817
06/16/2016 886.49 646383 -766 2420000 -1773617 1528 1195 53 1349 0 0.00 0 1528
06/17/2016 886.34 645562 -821 2420000 -1774438 1499 1145 60 1258 0 0.00 0 1499
06/18/2016 886.13 644412 -1150 2420000 -1775588 1549 1031 62 1191 0 0.00 0 1549
06/19/2016 885.89 643101 -1311 2420000 -1776899 1627 1014 48 1312 0 0.00 0 1627
06/20/2016 885.69 642012 -1089 2420000 -1777988 1497 1006 58 1380 0 0.00 0 1497
06/21/2016 885.50 640977 -1035 2420000 -1779023 1465 1015 72 1515 0 0.00 0 1465
06/22/2016 885.32 639997 -980 2420000 -1780003 1424 1014 84 1451 0 0.00 0 1424
06/23/2016 885.26 639670 -327 2420000 -1780330 1126 1047 86 1363 0 0.00 0 1126
06/24/2016 884.97 638091 -1579 2420000 -1781909 1655 947 88 1181 0 0.00 0 1655
06/25/2016 884.71 636683 -1408 2420000 -1783317 1630 985 65 1165 0 0.00 0 1630
06/26/2016 884.44 635220 -1463 2420000 -1784780 1608 951 81 1091 0 0.00 0 1608
06/27/2016 884.19 633866 -1354 2420000 -1786134 1539 942 86 -26665 0 0.00 0 1539
06/28/2016 884.04 633054 -812 2420000 -1786946 1347 1045 107 28901 0 0.00 0 1347
06/29/2016 883.80 631759 -1295 2420000 -1788241 1554 980 79 1126 0 0.00 0 1554
06/30/2016 883.59 630628 -1131 2420000 -1789372 1486 994 78 1087 0 0.00 0 1486
07/01/2016 -- -- -- -- -- -- -- -- -- -- -- -- --

Later | Latest

Warning! This data is preliminary and subject to revision.

Show NML Map | Plot NML Data | 1 Month NML Data | Real-Time NML Data | NML Info